Del Norte International Airport
MMAN : now visible

Airfield :











YOU CAN JOIN US ON...

 
LOGIN :

Register | Disclaimer

   EN    FR    IT 

 









Legend :    VFR   Marginal VFR   IFR   Intensive IFR   Very Intensive IFR
Visi :
Ceiling :
>= 8 km
>= 3000ft
5 to 8 km
1000 to 3000 ft
1500m to 5 km
500 to 1000 ft
800 to 1500m
200 to 500 ft
< 800m
< 200 ft
Symbols :   Thunderstorms  Fog  Heavy snow  Heavy precipitations  Wind > 20 kt






- Airport Elevation : 1476 ft
- IATA code : NTR


MMAN - Del Norte International

CURRENT METAR :
  • 270040Z 11006KT 12SM SCT030TCU 26/19 A2994 RMK 8/200

EXPIRED METARs :
  • 262340Z 08005KT 12SM SCT030TCU 28/17 A2993 RMK SLP/// 5//// 9// 8/200 ISOL AC
  • 262240Z 00000KT 10SM SCT030TCU 27/18 A2993 RMK 8/200

TAF AMD TAF MMAN
Valid from the 26 at 22:00 until the 27 at 18:00 UTC


262217Z 2622/2718 13008KT 6SM HZ BKN030
FM270300 08008KT 5SM HZ BKN015 OVC030
TEMPO 2703/2706 5SM RA
FM270800 03005KT 3SM BR HZ OVC012
TEMPO 2712/2716 1SM BR BKN005 OVC010
MMFR FIR / North America



MET'MAP, your aeronautical weather chart ! - Copyright ORBIFLY December 2007 - Disclaimer

ORBIFLY MET'MAP TEAM :

Programming & Development : Alexandra Zaïnal
Concept & original design : Baudouin d'Aumeries
Assistance for programming : Marc-Olivier Méhu
Technical & hardware support : Manuel Goepfert

Contact : metmap@orbifly.com




SOURCES & CREDITS :

   NOAA       Earth
Advisory